sensor_id;sensor_type;location;lat;lon;timestamp;pressure;altitude;pressure_sealevel;temperature;humidity
51313;BME280;37397;53.226;10.400;2023-05-09T00:00:36;101703.50;;;14.91;45.25
51313;BME280;37397;53.226;10.400;2023-05-09T00:03:04;101700.50;;;14.85;45.35
51313;BME280;37397;53.226;10.400;2023-05-09T00:05:31;101704.16;;;14.86;45.22
51313;BME280;37397;53.226;10.400;2023-05-09T00:07:57;101704.34;;;14.82;45.08
51313;BME280;37397;53.226;10.400;2023-05-09T00:10:23;101706.91;;;14.80;45.08
51313;BME280;37397;53.226;10.400;2023-05-09T00:12:50;101707.91;;;14.77;45.45
51313;BME280;37397;53.226;10.400;2023-05-09T00:15:17;101710.47;;;14.75;45.44
51313;BME280;37397;53.226;10.400;2023-05-09T00:17:44;101696.75;;;14.70;45.58
51313;BME280;37397;53.226;10.400;2023-05-09T00:20:11;101698.34;;;14.71;45.65
51313;BME280;37397;53.226;10.400;2023-05-09T00:22:38;101693.28;;;14.66;45.45
51313;BME280;37397;53.226;10.400;2023-05-09T00:25:08;101694.75;;;14.61;45.40
51313;BME280;37397;53.226;10.400;2023-05-09T00:27:35;101691.38;;;14.63;45.77
51313;BME280;37397;53.226;10.400;2023-05-09T00:30:03;101686.63;;;14.59;45.69
51313;BME280;37397;53.226;10.400;2023-05-09T00:32:31;101686.28;;;14.57;45.85
51313;BME280;37397;53.226;10.400;2023-05-09T00:34:58;101688.88;;;14.55;45.88
51313;BME280;37397;53.226;10.400;2023-05-09T00:37:24;101675.97;;;14.51;45.80
51313;BME280;37397;53.226;10.400;2023-05-09T00:39:51;101672.28;;;14.50;45.75
51313;BME280;37397;53.226;10.400;2023-05-09T00:42:18;101656.50;;;14.46;45.65
51313;BME280;37397;53.226;10.400;2023-05-09T00:44:45;101662.78;;;14.44;45.67
51313;BME280;37397;53.226;10.400;2023-05-09T00:47:11;101661.16;;;14.43;45.86
51313;BME280;37397;53.226;10.400;2023-05-09T00:49:38;101655.91;;;14.41;45.97
51313;BME280;37397;53.226;10.400;2023-05-09T00:52:04;101646.56;;;14.32;45.77
51313;BME280;37397;53.226;10.400;2023-05-09T00:54:31;101663.13;;;14.37;45.84
51313;BME280;37397;53.226;10.400;2023-05-09T00:56:58;101656.75;;;14.33;45.61
51313;BME280;37397;53.226;10.400;2023-05-09T00:59:26;101654.41;;;14.31;45.90
51313;BME280;37397;53.226;10.400;2023-05-09T01:01:52;101658.72;;;14.27;45.67
51313;BME280;37397;53.226;10.400;2023-05-09T01:04:19;101660.00;;;14.26;45.84
51313;BME280;37397;53.226;10.400;2023-05-09T01:10:24;101646.31;;;14.20;46.07
51313;BME280;37397;53.226;10.400;2023-05-09T01:15:11;101644.13;;;14.15;46.12
51313;BME280;37397;53.226;10.400;2023-05-09T01:17:58;101639.84;;;14.11;46.10
51313;BME280;37397;53.226;10.400;2023-05-09T01:20:34;101637.44;;;14.09;46.14
51313;BME280;37397;53.226;10.400;2023-05-09T01:26:19;101637.78;;;14.02;46.20
51313;BME280;37397;53.226;10.400;2023-05-09T01:29:14;101628.56;;;13.98;46.17
51313;BME280;37397;53.226;10.400;2023-05-09T01:31:45;101633.97;;;13.96;46.44
51313;BME280;37397;53.226;10.400;2023-05-09T01:34:15;101619.81;;;13.92;46.21
51313;BME280;37397;53.226;10.400;2023-05-09T01:36:45;101621.91;;;13.92;46.45
51313;BME280;37397;53.226;10.400;2023-05-09T01:39:12;101617.13;;;13.89;46.49
51313;BME280;37397;53.226;10.400;2023-05-09T01:41:39;101614.75;;;13.87;46.35
51313;BME280;37397;53.226;10.400;2023-05-09T01:44:08;101613.97;;;13.86;46.41
51313;BME280;37397;53.226;10.400;2023-05-09T01:46:36;101601.84;;;13.82;46.48
51313;BME280;37397;53.226;10.400;2023-05-09T01:49:04;101606.81;;;13.82;46.48
51313;BME280;37397;53.226;10.400;2023-05-09T01:51:33;101601.25;;;13.78;46.64
51313;BME280;37397;53.226;10.400;2023-05-09T01:54:02;101599.66;;;13.77;46.52
51313;BME280;37397;53.226;10.400;2023-05-09T01:56:30;101599.84;;;13.74;46.49
51313;BME280;37397;53.226;10.400;2023-05-09T01:58:58;101597.44;;;13.72;46.54
51313;BME280;37397;53.226;10.400;2023-05-09T02:01:26;101592.69;;;13.69;46.57
51313;BME280;37397;53.226;10.400;2023-05-09T02:03:53;101593.66;;;13.66;46.54
51313;BME280;37397;53.226;10.400;2023-05-09T02:06:22;101598.75;;;13.62;46.66
51313;BME280;37397;53.226;10.400;2023-05-09T02:08:49;101594.31;;;13.61;46.59
51313;BME280;37397;53.226;10.400;2023-05-09T02:11:16;101586.69;;;13.58;46.65
51313;BME280;37397;53.226;10.400;2023-05-09T02:13:42;101593.38;;;13.55;46.79
51313;BME280;37397;53.226;10.400;2023-05-09T02:16:09;101589.88;;;13.50;46.52
51313;BME280;37397;53.226;10.400;2023-05-09T02:18:37;101587.81;;;13.51;46.51
51313;BME280;37397;53.226;10.400;2023-05-09T02:21:04;101589.56;;;13.48;46.49
51313;BME280;37397;53.226;10.400;2023-05-09T02:23:31;101584.81;;;13.45;46.71
51313;BME280;37397;53.226;10.400;2023-05-09T02:25:58;101579.25;;;13.42;46.64
51313;BME280;37397;53.226;10.400;2023-05-09T02:28:25;101578.47;;;13.41;46.72
51313;BME280;37397;53.226;10.400;2023-05-09T02:30:54;101581.00;;;13.39;46.82
51313;BME280;37397;53.226;10.400;2023-05-09T02:33:22;101573.34;;;13.36;46.88
51313;BME280;37397;53.226;10.400;2023-05-09T02:35:49;101577.53;;;13.35;46.79
51313;BME280;37397;53.226;10.400;2023-05-09T02:38:17;101567.00;;;13.32;46.95
51313;BME280;37397;53.226;10.400;2023-05-09T02:40:46;101570.81;;;13.29;47.00
51313;BME280;37397;53.226;10.400;2023-05-09T02:43:12;101567.31;;;13.25;46.95
51313;BME280;37397;53.226;10.400;2023-05-09T02:45:40;101566.03;;;13.26;46.87
51313;BME280;37397;53.226;10.400;2023-05-09T02:48:07;101568.59;;;13.24;47.16
51313;BME280;37397;53.226;10.400;2023-05-09T02:50:35;101566.41;;;13.19;47.01
51313;BME280;37397;53.226;10.400;2023-05-09T02:53:04;101563.53;;;13.19;46.98
51313;BME280;37397;53.226;10.400;2023-05-09T02:55:32;101560.03;;;13.14;47.14
51313;BME280;37397;53.226;10.400;2023-05-09T02:57:58;101565.75;;;13.14;47.07
51313;BME280;37397;53.226;10.400;2023-05-09T03:00:41;101558.59;;;13.10;47.18
51313;BME280;37397;53.226;10.400;2023-05-09T03:03:07;101561.94;;;13.08;47.12
51313;BME280;37397;53.226;10.400;2023-05-09T03:05:34;101562.91;;;13.05;47.19
51313;BME280;37397;53.226;10.400;2023-05-09T03:08:01;101558.13;;;13.02;47.33
51313;BME280;37397;53.226;10.400;2023-05-09T03:10:27;101566.25;;;13.04;47.31
51313;BME280;37397;53.226;10.400;2023-05-09T03:12:54;101559.44;;;13.01;47.38
51313;BME280;37397;53.226;10.400;2023-05-09T03:15:21;101563.25;;;12.98;47.54
51313;BME280;37397;53.226;10.400;2023-05-09T03:17:48;101558.47;;;12.95;47.39
51313;BME280;37397;53.226;10.400;2023-05-09T03:20:14;101552.94;;;12.91;47.32
51313;BME280;37397;53.226;10.400;2023-05-09T03:22:41;101554.97;;;12.91;47.47
51313;BME280;37397;53.226;10.400;2023-05-09T03:25:09;101555.63;;;12.86;47.49
51313;BME280;37397;53.226;10.400;2023-05-09T03:27:37;101554.06;;;12.85;47.52
51313;BME280;37397;53.226;10.400;2023-05-09T03:30:07;101558.19;;;12.84;47.63
51313;BME280;37397;53.226;10.400;2023-05-09T03:32:33;101552.63;;;12.80;47.75
51313;BME280;37397;53.226;10.400;2023-05-09T03:35:00;101556.28;;;12.81;47.73
51313;BME280;37397;53.226;10.400;2023-05-09T03:37:26;101553.09;;;12.79;47.75
51313;BME280;37397;53.226;10.400;2023-05-09T03:39:53;101549.59;;;12.74;47.79
51313;BME280;37397;53.226;10.400;2023-05-09T03:42:20;101542.25;;;12.73;47.74
51313;BME280;37397;53.226;10.400;2023-05-09T03:44:49;101542.78;;;12.72;47.82
51313;BME280;37397;53.226;10.400;2023-05-09T03:47:19;101551.03;;;12.70;47.90
51313;BME280;37397;53.226;10.400;2023-05-09T03:49:47;101538.00;;;12.69;47.92
51313;BME280;37397;53.226;10.400;2023-05-09T03:52:17;101534.50;;;12.65;47.98
51313;BME280;37397;53.226;10.400;2023-05-09T03:54:44;101537.84;;;12.63;48.13
51313;BME280;37397;53.226;10.400;2023-05-09T03:57:10;101524.31;;;12.64;47.98
51313;BME280;37397;53.226;10.400;2023-05-09T03:59:37;101524.78;;;12.62;48.18
51313;BME280;37397;53.226;10.400;2023-05-09T04:02:03;101520.81;;;12.59;48.25
51313;BME280;37397;53.226;10.400;2023-05-09T04:04:30;101515.88;;;12.60;48.04
51313;BME280;37397;53.226;10.400;2023-05-09T04:06:57;101510.31;;;12.56;48.05
51313;BME280;37397;53.226;10.400;2023-05-09T04:09:24;101508.91;;;12.52;48.26
51313;BME280;37397;53.226;10.400;2023-05-09T04:11:52;101513.84;;;12.51;48.00
51313;BME280;37397;53.226;10.400;2023-05-09T04:14:18;101517.47;;;12.52;48.11
51313;BME280;37397;53.226;10.400;2023-05-09T04:16:45;101517.19;;;12.50;48.30
51313;BME280;37397;53.226;10.400;2023-05-09T04:19:11;101521.31;;;12.49;48.25
51313;BME280;37397;53.226;10.400;2023-05-09T04:21:38;101507.94;;;12.46;48.33
51313;BME280;37397;53.226;10.400;2023-05-09T04:24:05;101509.53;;;12.47;48.38
51313;BME280;37397;53.226;10.400;2023-05-09T04:26:39;101503.50;;;12.45;48.58
51313;BME280;37397;53.226;10.400;2023-05-09T04:29:10;101514.63;;;12.43;48.36
51313;BME280;37397;53.226;10.400;2023-05-09T04:31:36;101511.75;;;12.43;48.55
51313;BME280;37397;53.226;10.400;2023-05-09T04:34:05;101502.84;;;12.40;48.47
51313;BME280;37397;53.226;10.400;2023-05-09T04:36:33;101500.66;;;12.35;48.11
51313;BME280;37397;53.226;10.400;2023-05-09T04:39:00;101494.13;;;12.35;48.63
51313;BME280;37397;53.226;10.400;2023-05-09T04:41:28;101502.25;;;12.36;48.65
51313;BME280;37397;53.226;10.400;2023-05-09T04:43:54;101505.59;;;12.35;48.64
51313;BME280;37397;53.226;10.400;2023-05-09T04:46:23;101503.19;;;12.33;48.71
51313;BME280;37397;53.226;10.400;2023-05-09T04:48:52;101505.59;;;12.35;48.80
51313;BME280;37397;53.226;10.400;2023-05-09T04:51:19;101503.19;;;12.33;48.91
51313;BME280;37397;53.226;10.400;2023-05-09T04:53:45;101517.81;;;12.35;48.95
51313;BME280;37397;53.226;10.400;2023-05-09T04:56:13;101511.44;;;12.31;48.98
51313;BME280;37397;53.226;10.400;2023-05-09T04:58:41;101508.56;;;12.31;49.00
51313;BME280;37397;53.226;10.400;2023-05-09T05:01:09;101508.28;;;12.29;49.13
51313;BME280;37397;53.226;10.400;2023-05-09T05:03:36;101508.28;;;12.29;49.16
51313;BME280;37397;53.226;10.400;2023-05-09T05:06:04;101509.06;;;12.30;49.31
51313;BME280;37397;53.226;10.400;2023-05-09T05:08:32;101501.41;;;12.27;49.03
51313;BME280;37397;53.226;10.400;2023-05-09T05:10:59;101505.72;;;12.31;49.36
51313;BME280;37397;53.226;10.400;2023-05-09T05:13:26;101487.94;;;12.27;49.39
51313;BME280;37397;53.226;10.400;2023-05-09T05:15:56;101493.47;;;12.31;49.46
51313;BME280;37397;53.226;10.400;2023-05-09T05:18:24;101488.53;;;12.31;49.55
51313;BME280;37397;53.226;10.400;2023-05-09T05:20:50;101491.75;;;12.33;49.46
51313;BME280;37397;53.226;10.400;2023-05-09T05:23:17;101489.66;;;12.34;49.64
51313;BME280;37397;53.226;10.400;2023-05-09T05:25:44;101484.25;;;12.36;49.66
51313;BME280;37397;53.226;10.400;2023-05-09T05:28:12;101485.06;;;12.36;49.71
51313;BME280;37397;53.226;10.400;2023-05-09T05:30:40;101483.31;;;12.39;49.84
51313;BME280;37397;53.226;10.400;2023-05-09T05:33:06;101482.50;;;12.38;49.69
51313;BME280;37397;53.226;10.400;2023-05-09T05:35:33;101474.25;;;12.40;49.77
51313;BME280;37397;53.226;10.400;2023-05-09T05:38:00;101468.81;;;12.43;50.01
51313;BME280;37397;53.226;10.400;2023-05-09T05:40:27;101461.81;;;12.44;49.79
51313;BME280;37397;53.226;10.400;2023-05-09T05:42:54;101453.25;;;12.44;50.00
51313;BME280;37397;53.226;10.400;2023-05-09T05:45:22;101456.09;;;12.44;49.99
51313;BME280;37397;53.226;10.400;2023-05-09T05:47:52;101449.44;;;12.47;49.90
51313;BME280;37397;53.226;10.400;2023-05-09T05:50:21;101443.69;;;12.47;49.92
51313;BME280;37397;53.226;10.400;2023-05-09T05:52:48;101429.69;;;12.49;50.10
51313;BME280;37397;53.226;10.400;2023-05-09T05:55:16;101433.34;;;12.49;50.01
51313;BME280;37397;53.226;10.400;2023-05-09T05:57:43;101443.03;;;12.52;50.11
51313;BME280;37397;53.226;10.400;2023-05-09T06:00:13;101439.69;;;12.53;50.11
51313;BME280;37397;53.226;10.400;2023-05-09T06:02:45;101444.47;;;12.56;50.30
51313;BME280;37397;53.226;10.400;2023-05-09T06:05:29;101438.28;;;12.58;50.43
51313;BME280;37397;53.226;10.400;2023-05-09T06:07:56;101438.28;;;12.58;50.60
51313;BME280;37397;53.226;10.400;2023-05-09T06:10:22;101434.75;;;12.63;50.41
51313;BME280;37397;53.226;10.400;2023-05-09T06:12:49;101434.44;;;12.61;50.42
51313;BME280;37397;53.226;10.400;2023-05-09T06:15:16;101433.47;;;12.64;50.30
51313;BME280;37397;53.226;10.400;2023-05-09T06:17:45;101432.19;;;12.65;50.35
51313;BME280;37397;53.226;10.400;2023-05-09T06:20:12;101427.09;;;12.69;50.33
51313;BME280;37397;53.226;10.400;2023-05-09T06:22:38;101425.34;;;12.72;50.30
51313;BME280;37397;53.226;10.400;2023-05-09T06:25:05;101419.44;;;12.75;50.27
51313;BME280;37397;53.226;10.400;2023-05-09T06:27:35;101412.91;;;12.75;50.58
51313;BME280;37397;53.226;10.400;2023-05-09T06:30:02;101415.63;;;12.79;50.52
51313;BME280;37397;53.226;10.400;2023-05-09T06:32:48;101423.25;;;12.82;50.36
51313;BME280;37397;53.226;10.400;2023-05-09T06:35:14;101401.59;;;12.81;50.54
51313;BME280;37397;53.226;10.400;2023-05-09T06:37:42;101412.41;;;12.86;50.59
51313;BME280;37397;53.226;10.400;2023-05-09T06:40:08;101413.53;;;12.88;50.73
51313;BME280;37397;53.226;10.400;2023-05-09T06:42:35;101417.47;;;12.91;50.75
51313;BME280;37397;53.226;10.400;2023-05-09T06:45:01;101406.34;;;12.93;50.72
51313;BME280;37397;53.226;10.400;2023-05-09T06:47:28;101413.97;;;12.96;50.96
51313;BME280;37397;53.226;10.400;2023-05-09T06:49:55;101405.03;;;12.94;51.01
51313;BME280;37397;53.226;10.400;2023-05-09T06:52:21;101411.53;;;13.04;51.11
51313;BME280;37397;53.226;10.400;2023-05-09T06:54:47;101413.91;;;13.05;50.94
51313;BME280;37397;53.226;10.400;2023-05-09T06:57:14;101412.94;;;13.08;51.17
51313;BME280;37397;53.226;10.400;2023-05-09T06:59:41;101403.84;;;13.10;51.00
51313;BME280;37397;53.226;10.400;2023-05-09T07:02:07;101419.13;;;13.16;50.86
51313;BME280;37397;53.226;10.400;2023-05-09T07:04:33;101411.63;;;13.19;50.81
51313;BME280;37397;53.226;10.400;2023-05-09T07:07:00;101410.66;;;13.22;50.66
51313;BME280;37397;53.226;10.400;2023-05-09T07:09:27;101400.78;;;13.23;50.99
51313;BME280;37397;53.226;10.400;2023-05-09T07:11:54;101400.44;;;13.30;51.07
51313;BME280;37397;53.226;10.400;2023-05-09T07:14:20;101400.28;;;13.34;51.40
51313;BME280;37397;53.226;10.400;2023-05-09T07:16:47;101391.97;;;13.36;51.30
51313;BME280;37397;53.226;10.400;2023-05-09T07:19:14;101380.31;;;13.39;51.33
51313;BME280;37397;53.226;10.400;2023-05-09T07:21:40;101365.97;;;13.39;51.37
51313;BME280;37397;53.226;10.400;2023-05-09T07:24:07;101370.56;;;13.46;51.40
51313;BME280;37397;53.226;10.400;2023-05-09T07:26:36;101370.69;;;13.52;51.44
51313;BME280;37397;53.226;10.400;2023-05-09T07:29:02;101373.84;;;13.54;51.63
51313;BME280;37397;53.226;10.400;2023-05-09T07:31:29;101369.50;;;13.58;51.46
51313;BME280;37397;53.226;10.400;2023-05-09T07:33:56;101373.78;;;13.63;51.49
51313;BME280;37397;53.226;10.400;2023-05-09T07:36:22;101364.19;;;13.66;51.33
51313;BME280;37397;53.226;10.400;2023-05-09T07:38:49;101369.53;;;13.73;51.19
51313;BME280;37397;53.226;10.400;2023-05-09T07:41:18;101361.25;;;13.75;51.46
51313;BME280;37397;53.226;10.400;2023-05-09T07:43:44;101363.16;;;13.78;51.22
51313;BME280;37397;53.226;10.400;2023-05-09T07:46:11;101358.28;;;13.84;51.26
51313;BME280;37397;53.226;10.400;2023-05-09T07:48:38;101358.91;;;13.89;50.90
51313;BME280;37397;53.226;10.400;2023-05-09T07:51:04;101366.03;;;13.93;51.04
51313;BME280;37397;53.226;10.400;2023-05-09T07:53:30;101359.31;;;13.96;51.04
51313;BME280;37397;53.226;10.400;2023-05-09T07:55:57;101349.25;;;14.01;51.08
51313;BME280;37397;53.226;10.400;2023-05-09T07:58:24;101345.69;;;14.06;51.00
51313;BME280;37397;53.226;10.400;2023-05-09T08:00:50;101337.97;;;14.12;50.94
51313;BME280;37397;53.226;10.400;2023-05-09T08:03:17;101336.16;;;14.15;50.72
51313;BME280;37397;53.226;10.400;2023-05-09T08:05:46;101337.56;;;14.19;50.76
51313;BME280;37397;53.226;10.400;2023-05-09T08:08:12;101330.84;;;14.22;50.55
51313;BME280;37397;53.226;10.400;2023-05-09T08:10:39;101325.69;;;14.27;50.27
51313;BME280;37397;53.226;10.400;2023-05-09T08:13:05;101318.66;;;14.28;50.42
51313;BME280;37397;53.226;10.400;2023-05-09T08:15:31;101315.88;;;14.33;50.58
51313;BME280;37397;53.226;10.400;2023-05-09T08:17:58;101305.47;;;14.36;50.60
51313;BME280;37397;53.226;10.400;2023-05-09T08:20:25;101303.50;;;14.42;50.51
51313;BME280;37397;53.226;10.400;2023-05-09T08:22:51;101298.34;;;14.46;50.47
51313;BME280;37397;53.226;10.400;2023-05-09T08:25:18;101303.88;;;14.50;50.52
51313;BME280;37397;53.226;10.400;2023-05-09T08:27:45;101289.03;;;14.51;50.60
51313;BME280;37397;53.226;10.400;2023-05-09T08:30:12;101295.16;;;14.59;50.41
51313;BME280;37397;53.226;10.400;2023-05-09T08:32:39;101280.31;;;14.61;50.52
51313;BME280;37397;53.226;10.400;2023-05-09T08:35:06;101281.72;;;14.65;50.44
51313;BME280;37397;53.226;10.400;2023-05-09T08:37:37;101285.94;;;14.70;50.48
51313;BME280;37397;53.226;10.400;2023-05-09T08:40:04;101279.50;;;14.75;50.46
51313;BME280;37397;53.226;10.400;2023-05-09T08:42:36;101277.50;;;14.81;50.36
51313;BME280;37397;53.226;10.400;2023-05-09T08:45:09;101264.97;;;14.84;50.25
51313;BME280;37397;53.226;10.400;2023-05-09T08:47:37;101272.91;;;14.89;50.13
51313;BME280;37397;53.226;10.400;2023-05-09T08:50:04;101279.50;;;14.95;50.31
51313;BME280;37397;53.226;10.400;2023-05-09T08:52:32;101266.50;;;15.00;50.23
51313;BME280;37397;53.226;10.400;2023-05-09T08:55:02;101266.59;;;15.06;49.85
51313;BME280;37397;53.226;10.400;2023-05-09T08:57:32;101256.16;;;15.08;49.88
51313;BME280;37397;53.226;10.400;2023-05-09T09:00:03;101254.16;;;15.14;50.03
51313;BME280;37397;53.226;10.400;2023-05-09T09:02:34;101255.53;;;15.19;49.69
51313;BME280;37397;53.226;10.400;2023-05-09T09:05:00;101247.75;;;15.25;49.67
51313;BME280;37397;53.226;10.400;2023-05-09T09:07:29;101238.91;;;15.29;49.65
51313;BME280;37397;53.226;10.400;2023-05-09T09:09:57;101245.50;;;15.35;49.65
51313;BME280;37397;53.226;10.400;2023-05-09T09:12:24;101247.66;;;15.40;49.51
51313;BME280;37397;53.226;10.400;2023-05-09T09:14:53;101242.50;;;15.44;49.46
51313;BME280;37397;53.226;10.400;2023-05-09T09:17:24;101246.22;;;15.50;49.31
51313;BME280;37397;53.226;10.400;2023-05-09T09:19:55;101241.03;;;15.55;49.49
51313;BME280;37397;53.226;10.400;2023-05-09T09:22:29;101236.63;;;15.59;48.87
51313;BME280;37397;53.226;10.400;2023-05-09T09:25:00;101246.13;;;15.65;48.90
51313;BME280;37397;53.226;10.400;2023-05-09T09:27:27;101237.25;;;15.69;48.64
51313;BME280;37397;53.226;10.400;2023-05-09T09:29:53;101226.59;;;15.75;48.83
51313;BME280;37397;53.226;10.400;2023-05-09T09:32:31;101230.84;;;15.80;48.45
51313;BME280;37397;53.226;10.400;2023-05-09T09:35:09;101220.41;;;15.82;48.09
51313;BME280;37397;53.226;10.400;2023-05-09T09:37:37;101226.22;;;15.88;48.59
51313;BME280;37397;53.226;10.400;2023-05-09T09:40:10;101218.44;;;15.94;48.38
51313;BME280;37397;53.226;10.400;2023-05-09T09:42:42;101213.22;;;15.98;48.28
51313;BME280;37397;53.226;10.400;2023-05-09T09:45:13;101209.63;;;16.03;48.18
51313;BME280;37397;53.226;10.400;2023-05-09T09:47:43;101217.50;;;16.09;48.12
51313;BME280;37397;53.226;10.400;2023-05-09T09:50:14;101209.41;;;16.13;47.97
51313;BME280;37397;53.226;10.400;2023-05-09T09:52:48;101203.94;;;16.15;47.72
51313;BME280;37397;53.226;10.400;2023-05-09T09:55:19;101201.88;;;16.21;47.50
51313;BME280;37397;53.226;10.400;2023-05-09T09:57:46;101193.53;;;16.23;47.55
51313;BME280;37397;53.226;10.400;2023-05-09T10:00:15;101194.34;;;16.29;47.63
51313;BME280;37397;53.226;10.400;2023-05-09T10:02:51;101188.34;;;16.33;47.50
51313;BME280;37397;53.226;10.400;2023-05-09T10:05:26;101199.13;;;16.38;47.50
51313;BME280;37397;53.226;10.400;2023-05-09T10:08:01;101190.75;;;16.40;47.18
51313;BME280;37397;53.226;10.400;2023-05-09T10:10:30;101196.56;;;16.46;47.47
51313;BME280;37397;53.226;10.400;2023-05-09T10:12:58;101199.97;;;16.50;47.33
51313;BME280;37397;53.226;10.400;2023-05-09T10:15:27;101186.13;;;16.54;47.14
51313;BME280;37397;53.226;10.400;2023-05-09T10:18:04;101186.66;;;16.58;47.29
51313;BME280;37397;53.226;10.400;2023-05-09T10:20:33;101185.41;;;16.65;47.20
51313;BME280;37397;53.226;10.400;2023-05-09T10:23:01;101187.53;;;16.70;46.86
51313;BME280;37397;53.226;10.400;2023-05-09T10:25:43;101175.75;;;16.73;46.30
51313;BME280;37397;53.226;10.400;2023-05-09T10:28:14;101177.84;;;16.78;46.74
51313;BME280;37397;53.226;10.400;2023-05-09T10:30:51;101159.28;;;16.80;46.44
51313;BME280;37397;53.226;10.400;2023-05-09T10:33:25;101146.97;;;16.85;46.28
51313;BME280;37397;53.226;10.400;2023-05-09T10:35:56;101148.00;;;16.82;46.55
51313;BME280;37397;53.226;10.400;2023-05-09T10:38:24;101152.50;;;16.88;46.73
51313;BME280;37397;53.226;10.400;2023-05-09T10:40:52;101135.25;;;16.94;46.60
51313;BME280;37397;53.226;10.400;2023-05-09T10:43:19;101133.69;;;16.99;46.34
51313;BME280;37397;53.226;10.400;2023-05-09T10:45:47;101126.09;;;17.01;46.19
51313;BME280;37397;53.226;10.400;2023-05-09T10:48:14;101140.25;;;17.05;46.23
51313;BME280;37397;53.226;10.400;2023-05-09T10:50:41;101130.31;;;17.11;46.14
51313;BME280;37397;53.226;10.400;2023-05-09T10:53:09;101131.63;;;17.16;46.51
51313;BME280;37397;53.226;10.400;2023-05-09T10:55:56;101125.09;;;17.21;46.27
51313;BME280;37397;53.226;10.400;2023-05-09T10:58:31;101109.63;;;17.24;45.84
51313;BME280;37397;53.226;10.400;2023-05-09T11:01:00;101116.19;;;17.25;45.90
51313;BME280;37397;53.226;10.400;2023-05-09T11:03:28;101102.81;;;17.33;45.54
51313;BME280;37397;53.226;10.400;2023-05-09T11:06:51;101100.72;;;17.34;45.40
51313;BME280;37397;53.226;10.400;2023-05-09T11:09:37;101088.94;;;17.37;45.64
51313;BME280;37397;53.226;10.400;2023-05-09T11:14:45;101086.28;;;17.45;45.25
51313;BME280;37397;53.226;10.400;2023-05-09T11:17:14;101082.91;;;17.52;44.98
51313;BME280;37397;53.226;10.400;2023-05-09T11:22:13;101073.72;;;17.59;45.24
51313;BME280;37397;53.226;10.400;2023-05-09T11:24:50;101065.31;;;17.61;44.96
51313;BME280;37397;53.226;10.400;2023-05-09T11:27:25;101055.59;;;17.64;45.05
51313;BME280;37397;53.226;10.400;2023-05-09T11:29:54;101053.75;;;17.67;45.24
51313;BME280;37397;53.226;10.400;2023-05-09T11:32:26;101054.28;;;17.71;44.75
51313;BME280;37397;53.226;10.400;2023-05-09T11:35:06;101052.16;;;17.77;44.70
51313;BME280;37397;53.226;10.400;2023-05-09T11:40:19;101037.50;;;17.81;44.74
51313;BME280;37397;53.226;10.400;2023-05-09T11:42:49;101034.84;;;17.89;44.44
51313;BME280;37397;53.226;10.400;2023-05-09T11:45:16;101033.03;;;17.91;44.88
51313;BME280;37397;53.226;10.400;2023-05-09T11:47:44;101032.50;;;17.93;44.56
51313;BME280;37397;53.226;10.400;2023-05-09T11:50:12;101025.91;;;17.98;44.71
51313;BME280;37397;53.226;10.400;2023-05-09T11:52:39;101019.06;;;18.01;44.71
51313;BME280;37397;53.226;10.400;2023-05-09T11:55:09;101016.72;;;18.05;44.75
51313;BME280;37397;53.226;10.400;2023-05-09T11:57:49;101013.53;;;18.09;44.42
51313;BME280;37397;53.226;10.400;2023-05-09T12:00:24;101004.59;;;18.12;44.11
51313;BME280;37397;53.226;10.400;2023-05-09T12:02:52;100997.53;;;18.13;44.57
51313;BME280;37397;53.226;10.400;2023-05-09T12:05:20;101004.59;;;18.18;44.66
51313;BME280;37397;53.226;10.400;2023-05-09T12:07:48;100981.19;;;18.21;44.46
51313;BME280;37397;53.226;10.400;2023-05-09T12:10:18;100990.63;;;18.28;44.13
51313;BME280;37397;53.226;10.400;2023-05-09T12:12:47;100986.69;;;18.31;43.90
51313;BME280;37397;53.226;10.400;2023-05-09T12:15:15;100976.94;;;18.34;44.27
51313;BME280;37397;53.226;10.400;2023-05-09T12:17:43;100964.31;;;18.37;43.93
51313;BME280;37397;53.226;10.400;2023-05-09T12:20:11;100967.47;;;18.39;43.51
51313;BME280;37397;53.226;10.400;2023-05-09T12:22:41;100962.16;;;18.43;43.79
51313;BME280;37397;53.226;10.400;2023-05-09T12:25:09;100960.03;;;18.49;43.47
51313;BME280;37397;53.226;10.400;2023-05-09T12:27:37;100951.13;;;18.47;43.40
51313;BME280;37397;53.226;10.400;2023-05-09T12:30:05;100957.38;;;18.51;43.21
51313;BME280;37397;53.226;10.400;2023-05-09T12:32:35;100951.59;;;18.57;43.28
51313;BME280;37397;53.226;10.400;2023-05-09T12:35:03;100960.75;;;18.61;42.74
51313;BME280;37397;53.226;10.400;2023-05-09T12:37:30;100964.69;;;18.64;43.06
51313;BME280;37397;53.226;10.400;2023-05-09T12:40:04;100948.38;;;18.66;43.10
51313;BME280;37397;53.226;10.400;2023-05-09T12:42:32;100962.53;;;18.70;42.98
51313;BME280;37397;53.226;10.400;2023-05-09T12:45:03;100945.69;;;18.74;43.19
51313;BME280;37397;53.226;10.400;2023-05-09T12:47:30;100957.75;;;18.78;43.10
51313;BME280;37397;53.226;10.400;2023-05-09T12:49:58;100944.06;;;18.78;43.20
51313;BME280;37397;53.226;10.400;2023-05-09T12:52:31;100942.47;;;18.83;43.65
51313;BME280;37397;53.226;10.400;2023-05-09T12:55:04;100941.19;;;18.84;42.82
51313;BME280;37397;53.226;10.400;2023-05-09T12:57:31;100944.53;;;18.88;42.79
51313;BME280;37397;53.226;10.400;2023-05-09T12:59:58;100942.69;;;18.91;43.19
51313;BME280;37397;53.226;10.400;2023-05-09T13:02:25;100944.75;;;18.96;42.95
51313;BME280;37397;53.226;10.400;2023-05-09T13:05:11;100944.22;;;18.98;42.50